Time;durP1;ratioP1;P1;durP2;ratioP2;P2;SDS_P1;SDS_P2;PMS_P1;PMS_P2;Temp;Humidity;BMP_temperature;BMP_pressure;BME280_temperature;BME280_humidity;BME280_pressure;Samples;Min_cycle;Max_cycle;Signal;HPM_P1;HPM_P2
2022/04/16 00:00:50;;;;;;;26.65;16.42;;;;;;;;;;5074244;28;20024;-75
2022/04/16 00:03:16;;;;;;;31.95;16.63;;;;;;;;;;5074096;28;20012;-74
2022/04/16 00:05:44;;;;;;;25.08;16.65;;;;;;;;;;5092186;28;20078;-77
2022/04/16 00:08:10;;;;;;;34.85;17.10;;;;;;;;;;5092490;28;20100;-75
2022/04/16 00:10:37;;;;;;;33.80;15.43;;;;;;;;;;5092131;28;20059;-74
2022/04/16 00:13:04;;;;;;;34.53;14.40;;;;;;;;;;5095238;28;20055;-76
2022/04/16 00:15:30;;;;;;;37.75;15.15;;;;;;;;;;5085454;28;20031;-74
2022/04/16 00:17:56;;;;;;;25.25;13.40;;;;;;;;;;5104594;28;20019;-75
2022/04/16 00:20:25;;;;;;;27.67;13.05;;;;;;;;;;5080334;28;20024;-75
2022/04/16 00:22:51;;;;;;;23.23;12.85;;;;;;;;;;5074163;28;20021;-77
2022/04/16 00:25:19;;;;;;;18.67;12.45;;;;;;;;;;5074460;28;20035;-75
2022/04/16 00:27:45;;;;;;;23.48;12.77;;;;;;;;;;5073846;28;20016;-75
2022/04/16 00:30:11;;;;;;;16.30;9.82;;;;;;;;;;5092262;28;20091;-75
2022/04/16 00:32:37;;;;;;;20.58;10.35;;;;;;;;;;5092751;28;20020;-75
2022/04/16 00:35:03;;;;;;;24.48;12.25;;;;;;;;;;5092174;28;20103;-73
2022/04/16 00:37:29;;;;;;;22.45;10.48;;;;;;;;;;5092346;28;20024;-74
2022/04/16 00:39:55;;;;;;;14.73;9.35;;;;;;;;;;5073682;28;20028;-74
2022/04/16 00:42:22;;;;;;;17.25;9.52;;;;;;;;;;5073593;28;20111;-74
2022/04/16 00:44:49;;;;;;;19.90;10.13;;;;;;;;;;5091584;28;20035;-74
2022/04/16 00:47:15;;;;;;;17.08;9.40;;;;;;;;;;5091722;28;20020;-76
2022/04/16 00:49:41;;;;;;;22.48;10.85;;;;;;;;;;5073305;28;20063;-73
2022/04/16 00:52:08;;;;;;;14.70;8.38;;;;;;;;;;5091972;28;20024;-76
2022/04/16 00:54:34;;;;;;;19.77;9.30;;;;;;;;;;5092022;28;20352;-74
2022/04/16 00:57:00;;;;;;;18.20;9.48;;;;;;;;;;5091343;28;20072;-75
2022/04/16 00:59:27;;;;;;;19.42;9.70;;;;;;;;;;5091667;28;20020;-75
2022/04/16 01:01:53;;;;;;;30.33;10.60;;;;;;;;;;5073618;28;20355;-76
2022/04/16 01:04:19;;;;;;;14.60;8.55;;;;;;;;;;5073441;28;20442;-75
2022/04/16 01:06:48;;;;;;;20.08;8.30;;;;;;;;;;5073433;28;20021;-75
2022/04/16 01:09:15;;;;;;;18.48;10.02;;;;;;;;;;5091508;28;20016;-75
2022/04/16 01:11:41;;;;;;;16.55;10.50;;;;;;;;;;5073350;28;20134;-74
2022/04/16 01:14:07;;;;;;;16.35;11.48;;;;;;;;;;5073407;28;20032;-75
2022/04/16 01:16:34;;;;;;;20.05;12.18;;;;;;;;;;5075311;28;20020;-76
2022/04/16 01:19:01;;;;;;;16.00;11.52;;;;;;;;;;5095293;28;20012;-76
2022/04/16 01:21:28;;;;;;;17.75;10.35;;;;;;;;;;5077084;28;20024;-75
2022/04/16 01:23:54;;;;;;;15.30;10.18;;;;;;;;;;5077029;28;20065;-75
2022/04/16 01:26:22;;;;;;;16.95;9.63;;;;;;;;;;5077391;28;20128;-75
2022/04/16 01:28:48;;;;;;;14.68;9.57;;;;;;;;;;5078391;28;20060;-75
2022/04/16 01:31:14;;;;;;;14.50;8.77;;;;;;;;;;5076789;28;20387;-75
2022/04/16 01:33:40;;;;;;;15.75;8.75;;;;;;;;;;5094975;28;20200;-74
2022/04/16 01:36:06;;;;;;;16.42;8.48;;;;;;;;;;5095201;28;20020;-74
2022/04/16 01:38:32;;;;;;;13.25;6.82;;;;;;;;;;5095001;28;20031;-74
2022/04/16 01:40:59;;;;;;;11.20;6.78;;;;;;;;;;5094937;28;20069;-75
2022/04/16 01:43:25;;;;;;;16.70;7.15;;;;;;;;;;5094853;28;20438;-74
2022/04/16 01:45:51;;;;;;;11.38;6.82;;;;;;;;;;5076638;28;20575;-75
2022/04/16 01:48:19;;;;;;;16.90;7.63;;;;;;;;;;5094617;28;20503;-74
2022/04/16 01:50:46;;;;;;;17.98;7.72;;;;;;;;;;5095098;28;20115;-73
2022/04/16 01:53:12;;;;;;;16.67;7.40;;;;;;;;;;5076742;28;20047;-74
2022/04/16 01:55:38;;;;;;;9.90;5.63;;;;;;;;;;5094552;28;20103;-74
2022/04/16 01:58:06;;;;;;;9.23;4.20;;;;;;;;;;5094861;28;20020;-74
2022/04/16 02:00:33;;;;;;;10.15;5.80;;;;;;;;;;5094740;28;20071;-74
2022/04/16 02:03:00;;;;;;;10.05;4.95;;;;;;;;;;5076648;28;20035;-75
2022/04/16 02:05:26;;;;;;;7.47;4.68;;;;;;;;;;5076565;28;20056;-74
2022/04/16 02:07:52;;;;;;;10.57;5.13;;;;;;;;;;5095235;28;20028;-74
2022/04/16 02:10:19;;;;;;;10.68;4.80;;;;;;;;;;5109990;28;20072;-75
2022/04/16 02:12:45;;;;;;;15.23;5.55;;;;;;;;;;5115618;28;20012;-76
2022/04/16 02:15:11;;;;;;;13.13;4.60;;;;;;;;;;5097236;28;20011;-73
2022/04/16 02:17:38;;;;;;;8.23;3.95;;;;;;;;;;5116278;28;20027;-76
2022/04/16 02:20:06;;;;;;;11.43;4.97;;;;;;;;;;5115457;28;20015;-75
2022/04/16 02:22:39;;;;;;;12.70;5.32;;;;;;;;;;5097056;28;20019;-76
2022/04/16 02:25:07;;;;;;;13.80;5.85;;;;;;;;;;5097669;28;20038;-74
2022/04/16 02:27:34;;;;;;;5.35;2.85;;;;;;;;;;5095918;28;20489;-74
2022/04/16 02:30:01;;;;;;;8.30;5.55;;;;;;;;;;5098172;28;20020;-74
2022/04/16 02:32:28;;;;;;;11.48;5.22;;;;;;;;;;5096444;28;20020;-73
2022/04/16 02:34:56;;;;;;;7.40;4.40;;;;;;;;;;5114376;28;20049;-77
2022/04/16 02:37:22;;;;;;;13.40;5.00;;;;;;;;;;5114334;28;20463;-73
2022/04/16 02:39:48;;;;;;;13.25;4.82;;;;;;;;;;5114868;28;20033;-75
2022/04/16 02:42:14;;;;;;;8.38;4.90;;;;;;;;;;5095892;28;20042;-76
2022/04/16 02:47:24;;;;;;;13.18;5.10;;;;;;;;;;5115026;28;20035;-76
2022/04/16 02:49:50;;;;;;;6.55;4.55;;;;;;;;;;5114919;28;20024;-75
2022/04/16 02:52:16;;;;;;;15.52;5.15;;;;;;;;;;5114364;28;20498;-75
2022/04/16 02:54:42;;;;;;;6.88;4.18;;;;;;;;;;5114067;28;20027;-75
2022/04/16 02:57:08;;;;;;;12.68;4.95;;;;;;;;;;5096007;28;20488;-75
2022/04/16 02:59:35;;;;;;;7.43;4.70;;;;;;;;;;5095855;28;20097;-75
2022/04/16 03:02:01;;;;;;;16.02;5.63;;;;;;;;;;5114099;28;20118;-75
2022/04/16 03:04:27;;;;;;;13.20;5.10;;;;;;;;;;5095966;28;20054;-75
2022/04/16 03:06:53;;;;;;;7.65;5.13;;;;;;;;;;5114450;28;20142;-76
2022/04/16 03:09:19;;;;;;;6.50;4.75;;;;;;;;;;5095801;28;20101;-75
2022/04/16 03:11:45;;;;;;;12.27;5.07;;;;;;;;;;5113989;28;20020;-76
2022/04/16 03:19:41;;;;;;;9.98;4.38;;;;;;;;;;5114919;28;20035;-77
2022/04/16 03:22:07;;;;;;;14.18;4.82;;;;;;;;;;5096441;28;20152;-76
2022/04/16 03:24:33;;;;;;;9.20;5.50;;;;;;;;;;5114702;28;20036;-76
2022/04/16 03:26:59;;;;;;;9.43;4.90;;;;;;;;;;5114299;28;20053;-75
2022/04/16 03:29:25;;;;;;;9.38;5.03;;;;;;;;;;5096877;28;20020;-75
2022/04/16 03:31:51;;;;;;;10.15;5.13;;;;;;;;;;5116241;28;20032;-76
2022/04/16 03:34:17;;;;;;;6.85;4.57;;;;;;;;;;5114947;28;20027;-77
2022/04/16 03:36:44;;;;;;;9.35;5.40;;;;;;;;;;5098298;28;20042;-75
2022/04/16 03:39:10;;;;;;;6.68;4.40;;;;;;;;;;5112937;28;20012;-74
2022/04/16 03:41:36;;;;;;;10.68;6.03;;;;;;;;;;5095613;28;20015;-75
2022/04/16 03:44:02;;;;;;;9.75;4.68;;;;;;;;;;5113593;28;20030;-75
2022/04/16 03:46:28;;;;;;;17.83;4.97;;;;;;;;;;5114638;28;20036;-75
2022/04/16 03:48:54;;;;;;;8.30;5.60;;;;;;;;;;5113757;28;20023;-75
2022/04/16 03:51:20;;;;;;;12.70;6.07;;;;;;;;;;5094812;28;20012;-75
2022/04/16 03:53:46;;;;;;;10.07;5.57;;;;;;;;;;5094459;28;20028;-75
2022/04/16 04:01:41;;;;;;;10.00;5.68;;;;;;;;;;5113124;28;20044;-75
2022/04/16 04:04:09;;;;;;;12.02;5.57;;;;;;;;;;5113634;28;20130;-75
2022/04/16 04:06:36;;;;;;;14.00;5.25;;;;;;;;;;5112862;28;20073;-75
2022/04/16 04:09:02;;;;;;;10.48;5.70;;;;;;;;;;5112897;28;20031;-76
2022/04/16 04:11:28;;;;;;;11.00;5.63;;;;;;;;;;5094173;28;20023;-75
2022/04/16 04:13:54;;;;;;;11.85;6.28;;;;;;;;;;5096170;28;20023;-75
2022/04/16 04:16:22;;;;;;;9.73;5.95;;;;;;;;;;5113165;28;20102;-74
2022/04/16 04:18:48;;;;;;;11.52;5.68;;;;;;;;;;5095192;28;20107;-75
2022/04/16 04:21:15;;;;;;;12.90;7.55;;;;;;;;;;5095908;28;20502;-76
2022/04/16 04:23:41;;;;;;;12.60;6.72;;;;;;;;;;5114568;28;20019;-76
2022/04/16 04:26:07;;;;;;;11.95;5.97;;;;;;;;;;5093872;28;20434;-74
2022/04/16 04:28:33;;;;;;;31.73;16.33;;;;;;;;;;5112187;28;20019;-76
2022/04/16 04:30:59;;;;;;;28.48;16.85;;;;;;;;;;5112324;28;20020;-75
2022/04/16 04:33:25;;;;;;;18.63;11.75;;;;;;;;;;5112403;28;20099;-75
2022/04/16 04:35:51;;;;;;;10.23;6.30;;;;;;;;;;5112450;28;20065;-75
2022/04/16 04:38:17;;;;;;;12.20;7.18;;;;;;;;;;5094043;28;20475;-74
2022/04/16 04:40:43;;;;;;;12.52;7.28;;;;;;;;;;5093883;28;20529;-76
2022/04/16 04:43:09;;;;;;;11.02;7.03;;;;;;;;;;5111992;28;20081;-75
2022/04/16 04:45:35;;;;;;;12.40;7.28;;;;;;;;;;5112751;28;20537;-75
2022/04/16 04:48:01;;;;;;;16.63;7.85;;;;;;;;;;5093801;28;20038;-76
2022/04/16 04:50:27;;;;;;;10.05;6.25;;;;;;;;;;5112473;28;20030;-75
2022/04/16 04:52:53;;;;;;;10.80;7.90;;;;;;;;;;5097937;28;20095;-76
2022/04/16 04:55:19;;;;;;;19.35;11.70;;;;;;;;;;5116353;28;20031;-76
2022/04/16 04:57:45;;;;;;;32.65;18.85;;;;;;;;;;5097936;28;20031;-78
2022/04/16 05:00:12;;;;;;;33.50;22.73;;;;;;;;;;5116332;28;20490;-77
2022/04/16 05:02:45;;;;;;;25.45;14.40;;;;;;;;;;5116277;28;20023;-77
2022/04/16 05:05:11;;;;;;;20.70;17.92;;;;;;;;;;5115391;28;20387;-78
2022/04/16 05:07:37;;;;;;;13.32;9.15;;;;;;;;;;5097716;28;20034;-76
2022/04/16 05:10:04;;;;;;;24.52;13.23;;;;;;;;;;5097177;28;20039;-76
2022/04/16 05:12:30;;;;;;;15.70;9.15;;;;;;;;;;5115903;28;20501;-77
2022/04/16 05:14:56;;;;;;;14.02;7.28;;;;;;;;;;5115635;28;20031;-75
2022/04/16 05:17:22;;;;;;;19.70;11.35;;;;;;;;;;5115596;28;20030;-76
2022/04/16 05:19:48;;;;;;;17.02;12.75;;;;;;;;;;5115494;28;20055;-78
2022/04/16 05:22:14;;;;;;;60.97;33.72;;;;;;;;;;5097294;28;20020;-79
2022/04/16 05:24:40;;;;;;;49.17;29.90;;;;;;;;;;5118812;28;20032;-76
2022/04/16 05:27:09;;;;;;;21.75;13.68;;;;;;;;;;5124747;28;20107;-77
2022/04/16 05:29:48;;;;;;;20.42;13.82;;;;;;;;;;5122953;28;20576;-76
2022/04/16 05:32:19;;;;;;;27.40;15.77;;;;;;;;;;5107906;28;20020;-76
2022/04/16 05:34:45;;;;;;;21.48;12.95;;;;;;;;;;5115479;28;20020;-77
2022/04/16 05:37:11;;;;;;;16.65;9.68;;;;;;;;;;5096964;28;20065;-75
2022/04/16 05:39:38;;;;;;;16.40;9.85;;;;;;;;;;5115830;28;20043;-76
2022/04/16 05:42:04;;;;;;;12.40;9.23;;;;;;;;;;5097230;28;20495;-76
2022/04/16 05:44:30;;;;;;;12.05;9.82;;;;;;;;;;5097302;28;20105;-76
2022/04/16 05:46:56;;;;;;;19.08;10.55;;;;;;;;;;5097025;28;20145;-77
2022/04/16 05:49:22;;;;;;;25.52;15.18;;;;;;;;;;5096793;28;20027;-77
2022/04/16 05:51:49;;;;;;;27.17;15.38;;;;;;;;;;5096830;28;20027;-76
2022/04/16 05:54:15;;;;;;;17.08;12.65;;;;;;;;;;5096581;28;20023;-77
2022/04/16 05:56:41;;;;;;;19.40;11.85;;;;;;;;;;5115475;28;20023;-77
2022/04/16 05:59:07;;;;;;;23.92;13.68;;;;;;;;;;5099466;28;20023;-77
2022/04/16 06:01:33;;;;;;;15.20;10.38;;;;;;;;;;5116565;28;20020;-76
2022/04/16 06:03:59;;;;;;;20.67;13.55;;;;;;;;;;5114552;28;20113;-76
2022/04/16 06:06:25;;;;;;;36.65;17.40;;;;;;;;;;5114833;28;20036;-77
2022/04/16 06:08:51;;;;;;;23.17;14.65;;;;;;;;;;5096416;28;20011;-77
2022/04/16 06:11:20;;;;;;;13.00;9.55;;;;;;;;;;5114701;28;20047;-77
2022/04/16 06:13:46;;;;;;;24.58;16.38;;;;;;;;;;5096438;28;20453;-77
2022/04/16 06:16:12;;;;;;;14.20;9.45;;;;;;;;;;5115033;28;20039;-78
2022/04/16 06:18:38;;;;;;;14.98;7.65;;;;;;;;;;5114809;28;20076;-76
2022/04/16 06:21:04;;;;;;;10.25;5.95;;;;;;;;;;5114535;28;20035;-77
2022/04/16 06:23:31;;;;;;;10.55;7.28;;;;;;;;;;5096650;28;20023;-75
2022/04/16 06:25:58;;;;;;;13.18;8.70;;;;;;;;;;5098478;28;20040;-76
2022/04/16 06:28:24;;;;;;;15.43;8.82;;;;;;;;;;5101209;28;20020;-76
2022/04/16 06:30:50;;;;;;;27.08;18.20;;;;;;;;;;5099105;28;20441;-76
2022/04/16 06:33:16;;;;;;;11.88;9.55;;;;;;;;;;5096009;28;20020;-76
2022/04/16 06:35:42;;;;;;;11.80;9.02;;;;;;;;;;5096542;28;20496;-76
2022/04/16 06:38:09;;;;;;;15.68;10.52;;;;;;;;;;5114138;28;20394;-76
2022/04/16 06:40:35;;;;;;;11.15;8.00;;;;;;;;;;5095899;28;20024;-76
2022/04/16 06:43:01;;;;;;;12.85;9.75;;;;;;;;;;5095814;28;20397;-76
2022/04/16 06:45:27;;;;;;;13.48;8.32;;;;;;;;;;5113710;28;20032;-77
2022/04/16 06:47:53;;;;;;;15.40;8.65;;;;;;;;;;5097249;28;20020;-77
2022/04/16 06:50:19;;;;;;;32.00;11.23;;;;;;;;;;5095859;28;20024;-76
2022/04/16 06:52:45;;;;;;;26.58;10.98;;;;;;;;;;5095503;28;20040;-76
2022/04/16 06:55:11;;;;;;;15.00;10.02;;;;;;;;;;5113797;28;20015;-77
2022/04/16 06:57:37;;;;;;;12.27;7.07;;;;;;;;;;5114409;28;20031;-76
2022/04/16 07:00:05;;;;;;;16.88;10.57;;;;;;;;;;5113660;28;20027;-76
2022/04/16 07:02:31;;;;;;;16.15;8.95;;;;;;;;;;5113514;28;20046;-78
2022/04/16 07:04:58;;;;;;;13.60;9.60;;;;;;;;;;5113616;28;20052;-76
2022/04/16 07:07:24;;;;;;;12.15;9.40;;;;;;;;;;5095290;28;20076;-77
2022/04/16 07:09:50;;;;;;;17.70;11.98;;;;;;;;;;5095234;28;20016;-76
2022/04/16 07:12:16;;;;;;;23.08;16.38;;;;;;;;;;5095479;28;20101;-77
2022/04/16 07:14:42;;;;;;;20.67;13.27;;;;;;;;;;5112398;28;20058;-77
2022/04/16 07:17:08;;;;;;;15.50;8.65;;;;;;;;;;5113494;28;20026;-77
2022/04/16 07:19:35;;;;;;;13.00;11.25;;;;;;;;;;5096712;28;20103;-76
2022/04/16 07:22:01;;;;;;;18.48;13.20;;;;;;;;;;5106366;28;20050;-76
2022/04/16 07:24:28;;;;;;;16.65;14.15;;;;;;;;;;5106132;28;20107;-77
2022/04/16 07:26:54;;;;;;;11.40;9.20;;;;;;;;;;5118001;28;20016;-77
2022/04/16 07:29:21;;;;;;;13.27;9.55;;;;;;;;;;5113232;28;20024;-77
2022/04/16 07:31:47;;;;;;;17.45;13.30;;;;;;;;;;5113071;28;20050;-77
2022/04/16 07:34:13;;;;;;;18.38;13.80;;;;;;;;;;5112438;28;20531;-77
2022/04/16 07:36:40;;;;;;;25.15;15.73;;;;;;;;;;5113123;28;20024;-78
2022/04/16 07:39:06;;;;;;;27.45;18.08;;;;;;;;;;5113034;28;20023;-77
2022/04/16 07:41:32;;;;;;;19.15;15.48;;;;;;;;;;5094615;28;20024;-78
2022/04/16 07:44:03;;;;;;;18.88;14.88;;;;;;;;;;5094739;28;20382;-78
2022/04/16 07:46:29;;;;;;;18.48;16.48;;;;;;;;;;5112466;28;20474;-78
2022/04/16 07:48:57;;;;;;;28.63;22.95;;;;;;;;;;5094459;28;20023;-77
2022/04/16 07:51:23;;;;;;;20.63;16.73;;;;;;;;;;5094272;28;20114;-76
2022/04/16 07:53:49;;;;;;;24.10;18.60;;;;;;;;;;5094493;28;20115;-76
2022/04/16 07:56:15;;;;;;;21.65;17.50;;;;;;;;;;5094277;28;20031;-78
2022/04/16 07:58:41;;;;;;;23.63;18.83;;;;;;;;;;5113048;28;20094;-77
2022/04/16 08:01:07;;;;;;;25.35;19.30;;;;;;;;;;5112177;28;20069;-77
2022/04/16 08:03:33;;;;;;;18.80;16.13;;;;;;;;;;5112490;28;20024;-77
2022/04/16 08:05:59;;;;;;;17.00;15.20;;;;;;;;;;5093843;28;20047;-77
2022/04/16 08:08:25;;;;;;;18.00;16.05;;;;;;;;;;5093995;28;20083;-77
2022/04/16 08:10:53;;;;;;;22.85;16.63;;;;;;;;;;5111955;28;20020;-77
2022/04/16 08:13:19;;;;;;;17.98;14.57;;;;;;;;;;5093810;28;20065;-78
2022/04/16 08:15:45;;;;;;;22.13;14.27;;;;;;;;;;5094047;28;20020;-76
2022/04/16 08:18:12;;;;;;;19.33;16.88;;;;;;;;;;5112236;28;20024;-75
2022/04/16 08:20:38;;;;;;;24.25;17.92;;;;;;;;;;5112224;28;20088;-77
2022/04/16 08:23:06;;;;;;;24.20;17.63;;;;;;;;;;5112129;28;20466;-76
2022/04/16 08:28:02;;;;;;;20.40;16.80;;;;;;;;;;5112765;28;20020;-77
2022/04/16 08:30:28;;;;;;;17.13;12.75;;;;;;;;;;5112390;28;20047;-75
2022/04/16 08:32:54;;;;;;;20.58;16.40;;;;;;;;;;5112324;28;20026;-75
2022/04/16 08:35:20;;;;;;;15.43;12.70;;;;;;;;;;5093700;28;20024;-77
2022/04/16 08:37:47;;;;;;;18.45;12.68;;;;;;;;;;5111799;28;20364;-76
2022/04/16 08:40:14;;;;;;;10.75;8.82;;;;;;;;;;5112067;28;20024;-76
2022/04/16 08:42:40;;;;;;;11.93;10.38;;;;;;;;;;5093754;28;20513;-76
2022/04/16 08:45:07;;;;;;;15.52;13.98;;;;;;;;;;5093226;28;20062;-76
2022/04/16 08:47:34;;;;;;;15.75;13.93;;;;;;;;;;5111812;28;20073;-77
2022/04/16 08:50:01;;;;;;;17.17;13.90;;;;;;;;;;5093556;28;20466;-76
2022/04/16 08:52:31;;;;;;;18.60;15.40;;;;;;;;;;5111912;28;20107;-77
2022/04/16 08:54:57;;;;;;;16.80;15.00;;;;;;;;;;5093417;28;20478;-75
2022/04/16 08:57:24;;;;;;;15.90;14.30;;;;;;;;;;5111841;28;20114;-75
2022/04/16 08:59:53;;;;;;;16.48;14.80;;;;;;;;;;5111978;28;20490;-76
2022/04/16 09:02:19;;;;;;;11.70;9.15;;;;;;;;;;5093005;28;20394;-75
2022/04/16 09:04:47;;;;;;;14.13;10.80;;;;;;;;;;5111170;28;20476;-75
2022/04/16 09:07:13;;;;;;;11.15;7.78;;;;;;;;;;5093532;28;20061;-75
2022/04/16 09:09:39;;;;;;;11.43;9.13;;;;;;;;;;5093246;28;20065;-75
2022/04/16 09:12:15;;;;;;;8.23;6.28;;;;;;;;;;5111256;28;20063;-75
2022/04/16 09:14:44;;;;;;;9.32;6.82;;;;;;;;;;5111463;28;20024;-75
2022/04/16 09:17:14;;;;;;;17.45;10.70;;;;;;;;;;5093114;28;20024;-76
2022/04/16 09:19:40;;;;;;;10.57;7.47;;;;;;;;;;5111629;28;20034;-76
2022/04/16 09:22:08;;;;;;;11.02;7.30;;;;;;;;;;5111654;28;20039;-77
2022/04/16 09:24:49;;;;;;;9.63;7.70;;;;;;;;;;5110556;28;20343;-77
2022/04/16 09:27:15;;;;;;;11.68;8.50;;;;;;;;;;5093397;28;20054;-77
2022/04/16 09:29:43;;;;;;;21.55;8.88;;;;;;;;;;5093229;28;20019;-78
2022/04/16 09:32:09;;;;;;;12.32;6.70;;;;;;;;;;5111699;28;20545;-76
2022/04/16 09:34:35;;;;;;;9.13;4.75;;;;;;;;;;5111570;28;20028;-77
2022/04/16 09:37:27;;;;;;;10.68;5.97;;;;;;;;;;5112673;28;20482;-77
2022/04/16 09:39:54;;;;;;;9.00;5.00;;;;;;;;;;5111094;28;20241;-77
2022/04/16 09:42:26;;;;;;;10.52;7.32;;;;;;;;;;5114514;28;20085;-78
2022/04/16 09:44:52;;;;;;;12.88;7.68;;;;;;;;;;5093706;28;20036;-77
2022/04/16 09:47:23;;;;;;;15.65;11.00;;;;;;;;;;5114480;28;20026;-79
2022/04/16 09:49:50;;;;;;;11.85;7.50;;;;;;;;;;5095765;28;20019;-77
2022/04/16 09:52:18;;;;;;;32.65;9.95;;;;;;;;;;5114298;28;20023;-78
2022/04/16 09:54:45;;;;;;;12.30;8.07;;;;;;;;;;5096124;28;20015;-79
2022/04/16 09:57:13;;;;;;;22.10;8.00;;;;;;;;;;5114133;28;20016;-78
2022/04/16 09:59:40;;;;;;;16.13;9.95;;;;;;;;;;5113812;28;20061;-78
2022/04/16 10:33:39;;;;;;;10.25;5.93;;;;;;;;;;5048274;28;20484;-76
2022/04/16 10:36:11;;;;;;;11.95;4.53;;;;;;;;;;5042870;28;20048;-77
2022/04/16 10:38:43;;;;;;;6.15;4.63;;;;;;;;;;5028221;28;20448;-76
2022/04/16 10:41:12;;;;;;;13.63;5.80;;;;;;;;;;5040698;28;20035;-76
2022/04/16 10:43:39;;;;;;;9.43;5.25;;;;;;;;;;5044846;28;20026;-75
2022/04/16 10:46:06;;;;;;;9.20;6.03;;;;;;;;;;5046148;28;20037;-75
2022/04/16 10:48:33;;;;;;;7.68;6.25;;;;;;;;;;5045348;28;20041;-76
2022/04/16 10:50:59;;;;;;;7.18;4.40;;;;;;;;;;5045488;28;20033;-75
2022/04/16 10:53:33;;;;;;;9.95;6.28;;;;;;;;;;5028406;28;20499;-75
2022/04/16 10:55:59;;;;;;;;;;;;;;;;;;5045579;28;20091;-75
2022/04/16 10:58:28;;;;;;;6.68;5.20;;;;;;;;;;4985766;28;19907;-75
2022/04/16 11:01:04;;;;;;;8.52;5.78;;;;;;;;;;4957756;28;20422;-75
2022/04/16 11:03:31;;;;;;;7.22;4.72;;;;;;;;;;4949626;29;20052;-75
2022/04/16 11:06:03;;;;;;;10.25;6.03;;;;;;;;;;4950026;29;20031;-75
2022/04/16 11:08:29;;;;;;;16.55;10.32;;;;;;;;;;4950101;29;20039;-76
2022/04/16 11:10:58;;;;;;;13.93;9.30;;;;;;;;;;4949958;29;20027;-75
2022/04/16 11:13:26;;;;;;;12.75;6.90;;;;;;;;;;4950206;29;20031;-76
2022/04/16 11:15:52;;;;;;;9.75;6.05;;;;;;;;;;4949794;29;20419;-76
2022/04/16 11:18:18;;;;;;;5.32;3.15;;;;;;;;;;4964617;28;20027;-76
2022/04/16 11:20:54;;;;;;;8.98;4.32;;;;;;;;;;4955726;28;20521;-77
2022/04/16 11:23:24;;;;;;;5.50;3.13;;;;;;;;;;4937432;29;20020;-75
2022/04/16 11:34:17;;;;;;;4.32;3.17;;;;;;;;;;4955003;29;20053;-77
2022/04/16 11:36:50;;;;;;;5.35;4.18;;;;;;;;;;4954128;29;20106;-77
2022/04/16 11:39:36;;;;;;;5.17;2.63;;;;;;;;;;4953604;29;20050;-75
2022/04/16 11:42:10;;;;;;;9.15;3.17;;;;;;;;;;4954293;29;20493;-77
2022/04/16 11:44:42;;;;;;;;;;;;;;;;;;4953619;29;20026;-75
2022/04/16 11:47:11;;;;;;;3.78;2.15;;;;;;;;;;4954194;29;20269;-76
2022/04/16 11:49:38;;;;;;;7.55;4.45;;;;;;;;;;4955006;29;20038;-75
2022/04/16 11:52:05;;;;;;;4.45;3.33;;;;;;;;;;4953706;28;20451;-76
2022/04/16 11:54:31;;;;;;;6.35;3.60;;;;;;;;;;4952718;29;20471;-76
2022/04/16 11:56:58;;;;;;;10.50;4.95;;;;;;;;;;4953678;28;20027;-76
2022/04/16 11:59:24;;;;;;;6.97;3.28;;;;;;;;;;4954643;29;20070;-75
2022/04/16 12:02:01;;;;;;;4.18;3.03;;;;;;;;;;4955060;29;20023;-75
2022/04/16 12:04:38;;;;;;;6.00;3.92;;;;;;;;;;4954904;29;20082;-77
2022/04/16 12:07:10;;;;;;;10.68;5.28;;;;;;;;;;4955276;29;20023;-75
2022/04/16 12:09:36;;;;;;;5.18;3.78;;;;;;;;;;4952409;29;20023;-75
2022/04/16 12:12:04;;;;;;;8.80;5.07;;;;;;;;;;4954939;29;20027;-76
2022/04/16 12:14:30;;;;;;;7.47;4.55;;;;;;;;;;4953266;29;20114;-76
2022/04/16 12:17:00;;;;;;;12.27;5.90;;;;;;;;;;4954984;29;20023;-75
2022/04/16 12:19:36;;;;;;;6.78;4.88;;;;;;;;;;4954973;29;20125;-76
2022/04/16 12:22:02;;;;;;;5.90;3.95;;;;;;;;;;4953087;29;20027;-78
2022/04/16 12:24:28;;;;;;;9.23;4.50;;;;;;;;;;4953283;28;20019;-77
2022/04/16 12:26:55;;;;;;;8.43;5.10;;;;;;;;;;4951959;28;20015;-76
2022/04/16 12:29:29;;;;;;;10.48;4.30;;;;;;;;;;4952559;29;20065;-77
2022/04/16 12:31:59;;;;;;;7.50;5.45;;;;;;;;;;4949389;28;20051;-78
2022/04/16 12:34:27;;;;;;;14.07;6.57;;;;;;;;;;4952797;29;20016;-76
2022/04/16 12:36:54;;;;;;;10.20;7.72;;;;;;;;;;4954407;29;20016;-77
2022/04/16 12:39:22;;;;;;;14.85;8.77;;;;;;;;;;4954660;29;20023;-76
2022/04/16 12:41:50;;;;;;;13.70;7.85;;;;;;;;;;4952887;29;20386;-77
2022/04/16 12:44:16;;;;;;;8.68;4.93;;;;;;;;;;4951667;29;20012;-77
2022/04/16 12:46:42;;;;;;;6.20;5.45;;;;;;;;;;4952764;28;20525;-77
2022/04/16 12:49:08;;;;;;;8.98;7.20;;;;;;;;;;4954077;29;20398;-78
2022/04/16 12:51:34;;;;;;;9.13;6.05;;;;;;;;;;4954095;29;20036;-76
2022/04/16 12:54:01;;;;;;;12.52;7.32;;;;;;;;;;4954458;29;20024;-75
2022/04/16 12:56:27;;;;;;;8.82;6.72;;;;;;;;;;4953916;29;20015;-77
2022/04/16 12:58:53;;;;;;;9.23;6.43;;;;;;;;;;4953780;29;20513;-77
2022/04/16 13:01:19;;;;;;;8.80;5.78;;;;;;;;;;4954268;29;20027;-77
2022/04/16 13:03:45;;;;;;;7.57;4.82;;;;;;;;;;4953969;29;20023;-76
2022/04/16 13:06:11;;;;;;;7.30;5.13;;;;;;;;;;4952166;29;20102;-76
2022/04/16 13:08:37;;;;;;;8.52;5.75;;;;;;;;;;4953924;29;20046;-77
2022/04/16 13:11:06;;;;;;;8.05;5.25;;;;;;;;;;4954000;29;20023;-77
2022/04/16 13:13:32;;;;;;;9.00;6.93;;;;;;;;;;4952992;29;20030;-77
2022/04/16 13:15:58;;;;;;;11.85;8.57;;;;;;;;;;4953005;28;20020;-76
2022/04/16 13:18:24;;;;;;;8.95;7.70;;;;;;;;;;4954198;29;20031;-78
2022/04/16 13:20:50;;;;;;;11.45;7.63;;;;;;;;;;4954400;29;20106;-78
2022/04/16 13:23:16;;;;;;;8.88;6.63;;;;;;;;;;4952952;28;20034;-80
2022/04/16 13:25:42;;;;;;;11.70;7.68;;;;;;;;;;4953604;28;20031;-75
2022/04/16 13:28:08;;;;;;;10.82;7.25;;;;;;;;;;4952740;28;20035;-78
2022/04/16 13:30:34;;;;;;;12.30;9.20;;;;;;;;;;4952680;28;20042;-78
2022/04/16 13:33:01;;;;;;;14.68;8.38;;;;;;;;;;4953395;29;20051;-77
2022/04/16 13:35:27;;;;;;;8.23;4.57;;;;;;;;;;4953781;29;20020;-77
2022/04/16 13:37:53;;;;;;;11.55;5.93;;;;;;;;;;4952021;28;20024;-78
2022/04/16 13:43:04;;;;;;;6.75;4.40;;;;;;;;;;4953464;28;20042;-77
2022/04/16 13:45:30;;;;;;;7.07;4.05;;;;;;;;;;4966884;28;20031;-76
2022/04/16 13:47:56;;;;;;;11.30;4.57;;;;;;;;;;4973070;28;20482;-77
2022/04/16 13:50:22;;;;;;;6.88;5.32;;;;;;;;;;4971746;28;20915;-77
2022/04/16 13:52:48;;;;;;;8.00;5.45;;;;;;;;;;4971077;28;20074;-77
2022/04/16 13:55:14;;;;;;;8.90;6.18;;;;;;;;;;4971343;28;20031;-78
2022/04/16 13:57:40;;;;;;;22.52;7.93;;;;;;;;;;4972874;28;20089;-77
2022/04/16 14:00:07;;;;;;;10.23;7.07;;;;;;;;;;4972951;28;20101;-78
2022/04/16 14:02:33;;;;;;;11.48;7.32;;;;;;;;;;4973293;28;20034;-78
2022/04/16 14:07:43;;;;;;;15.13;8.95;;;;;;;;;;4972778;28;20492;-76
2022/04/16 14:10:10;;;;;;;4.35;3.53;;;;;;;;;;4972798;28;20031;-76
2022/04/16 14:12:36;;;;;;;10.38;6.43;;;;;;;;;;4972748;28;20023;-76
2022/04/16 14:15:03;;;;;;;9.18;5.35;;;;;;;;;;4973344;28;20034;-77
2022/04/16 14:17:29;;;;;;;12.48;8.68;;;;;;;;;;4972089;28;20031;-76
2022/04/16 14:19:55;;;;;;;7.72;5.40;;;;;;;;;;4970528;28;20034;-77
2022/04/16 14:22:22;;;;;;;5.95;4.43;;;;;;;;;;4973045;28;20023;-77
2022/04/16 14:24:48;;;;;;;6.75;4.85;;;;;;;;;;4972552;28;20450;-77
2022/04/16 14:27:16;;;;;;;9.10;7.35;;;;;;;;;;4959865;28;20485;-78
2022/04/16 14:29:43;;;;;;;11.85;7.35;;;;;;;;;;4952114;28;20078;-78
2022/04/16 14:32:09;;;;;;;14.20;9.00;;;;;;;;;;4951473;28;20102;-76
2022/04/16 14:34:35;;;;;;;9.07;6.07;;;;;;;;;;4952145;28;20031;-78
2022/04/16 14:37:01;;;;;;;14.00;9.55;;;;;;;;;;4952224;28;20541;-78
2022/04/16 14:39:27;;;;;;;16.73;11.00;;;;;;;;;;4952270;29;20070;-79
2022/04/16 14:41:54;;;;;;;13.10;9.05;;;;;;;;;;4953660;29;20047;-77
2022/04/16 14:44:20;;;;;;;7.18;5.35;;;;;;;;;;4951191;28;20023;-78
2022/04/16 14:46:46;;;;;;;8.02;4.55;;;;;;;;;;4949723;28;20030;-77
2022/04/16 14:49:14;;;;;;;6.38;4.60;;;;;;;;;;4950068;28;20528;-77
2022/04/16 14:51:42;;;;;;;10.07;7.32;;;;;;;;;;4952039;29;20089;-78
2022/04/16 14:54:08;;;;;;;14.15;6.90;;;;;;;;;;4948484;28;20462;-78
2022/04/16 14:56:34;;;;;;;9.30;6.47;;;;;;;;;;4954857;29;20082;-77
2022/04/16 14:59:02;;;;;;;9.95;6.82;;;;;;;;;;4953151;28;20023;-79
2022/04/16 15:01:28;;;;;;;16.02;11.32;;;;;;;;;;4951388;28;20047;-77
2022/04/16 15:03:54;;;;;;;8.10;4.43;;;;;;;;;;4955682;29;20026;-78
2022/04/16 15:06:20;;;;;;;10.25;6.03;;;;;;;;;;4954177;28;20029;-79
2022/04/16 15:08:46;;;;;;;5.68;3.63;;;;;;;;;;4955529;29;20083;-77
2022/04/16 15:11:12;;;;;;;11.77;6.13;;;;;;;;;;4954965;28;20031;-78
2022/04/16 15:13:38;;;;;;;6.10;4.68;;;;;;;;;;4956719;29;20031;-78
2022/04/16 15:16:05;;;;;;;5.80;4.35;;;;;;;;;;4954929;28;20115;-78
2022/04/16 15:18:33;;;;;;;7.45;5.60;;;;;;;;;;4956585;29;20098;-76
2022/04/16 15:20:59;;;;;;;9.55;6.03;;;;;;;;;;4955010;28;20026;-78
2022/04/16 15:23:25;;;;;;;6.07;4.97;;;;;;;;;;4956064;29;20023;-77
2022/04/16 15:25:51;;;;;;;8.95;5.75;;;;;;;;;;4956308;29;20058;-77
2022/04/16 15:28:17;;;;;;;7.95;5.00;;;;;;;;;;4955038;29;20067;-77
2022/04/16 15:30:47;;;;;;;9.25;5.50;;;;;;;;;;4956168;29;20027;-79